createdAt,value
2022-12-11T00:04:37.343Z,100425.84
2022-12-11T00:09:40.996Z,100424.53
2022-12-11T00:14:45.709Z,100426.56
2022-12-11T00:19:49.081Z,100413.84
2022-12-11T00:24:52.741Z,100425.09
2022-12-11T00:29:57.500Z,100432.16
2022-12-11T00:35:01.716Z,100430.81
2022-12-11T00:40:05.985Z,100424.56
2022-12-11T00:45:11.930Z,100428.31
2022-12-11T00:50:15.732Z,100430.94
2022-12-11T00:55:19.289Z,100439.66
2022-12-11T01:00:24.340Z,100438.28
2022-12-11T01:05:27.881Z,100435.94
2022-12-11T01:10:31.580Z,100432.06
2022-12-11T01:15:41.762Z,100435.22
2022-12-11T01:20:45.409Z,100434.31
2022-12-11T01:25:48.756Z,100429.25
2022-12-11T01:30:53.564Z,100429.56
2022-12-11T01:35:56.969Z,100422.31
2022-12-11T01:41:00.407Z,100422.22
2022-12-11T01:46:05.477Z,100436.59
2022-12-11T01:51:09.043Z,100435.56
2022-12-11T01:56:12.754Z,100423.59
2022-12-11T02:01:21.138Z,100433.25
2022-12-11T02:06:38.856Z,100439.28
2022-12-11T02:11:53.386Z,100437.09
2022-12-11T02:17:02.483Z,100424.66
2022-12-11T02:22:10.396Z,100429.66
2022-12-11T02:27:21.485Z,100419.25
2022-12-11T02:32:28.581Z,100428.78
2022-12-11T02:37:32.922Z,100438.38
2022-12-11T02:42:37.278Z,100441.16
2022-12-11T02:47:42.790Z,100435.75
2022-12-11T02:52:47.388Z,100428.66
2022-12-11T02:57:53.042Z,100422.00
2022-12-11T03:02:57.953Z,100424.16
2022-12-11T03:08:01.397Z,100424.47
2022-12-11T03:13:05.425Z,100412.59
2022-12-11T03:18:16.575Z,100406.44
2022-12-11T03:23:23.282Z,100409.22
2022-12-11T03:28:30.793Z,100415.19
2022-12-11T03:33:37.472Z,100418.44
2022-12-11T03:38:45.336Z,100418.13
2022-12-11T03:43:49.188Z,100412.75
2022-12-11T03:48:54.854Z,100407.66
2022-12-11T03:53:58.877Z,100405.41
2022-12-11T03:59:02.237Z,100403.34
2022-12-11T04:04:07.081Z,100412.25
2022-12-11T04:09:10.471Z,100417.56
2022-12-11T04:14:28.786Z,100419.84
2022-12-11T04:19:51.202Z,100414.78
2022-12-11T04:24:54.719Z,100412.19
2022-12-11T04:29:58.065Z,100415.31
2022-12-11T04:35:02.861Z,100408.75
2022-12-11T04:40:08.126Z,100420.09
2022-12-11T04:45:12.567Z,100412.03
2022-12-11T04:50:18.477Z,100417.25
2022-12-11T04:55:21.822Z,100420.81
2022-12-11T05:00:25.176Z,100417.22
2022-12-11T05:05:29.892Z,100401.53
2022-12-11T05:10:33.317Z,100400.03
2022-12-11T05:15:36.645Z,100398.88
2022-12-11T05:20:41.356Z,100393.66
2022-12-11T05:25:46.008Z,100380.84
2022-12-11T05:30:49.454Z,100382.09
2022-12-11T05:35:54.364Z,100391.25
2022-12-11T05:40:58.847Z,100390.72
2022-12-11T05:46:07.192Z,100384.13
2022-12-11T05:51:12.194Z,100389.56
2022-12-11T05:56:17.661Z,100394.09
2022-12-11T06:01:22.776Z,100407.56
2022-12-11T06:06:28.336Z,100394.66
2022-12-11T06:11:33.353Z,100399.31
2022-12-11T06:16:36.774Z,100393.09
2022-12-11T06:21:42.065Z,100385.88
2022-12-11T06:26:45.433Z,100387.34
2022-12-11T06:31:48.873Z,100378.69
2022-12-11T06:36:53.627Z,100383.22
2022-12-11T06:41:56.952Z,100384.25
2022-12-11T06:47:00.409Z,100376.25
2022-12-11T06:52:06.875Z,100379.47
2022-12-11T06:57:10.354Z,100386.03
2022-12-11T07:02:14.850Z,100390.69
2022-12-11T07:07:19.824Z,100397.44
2022-12-11T07:12:23.197Z,100400.69
2022-12-11T07:17:26.847Z,100403.31
2022-12-11T07:22:31.568Z,100403.03
2022-12-11T07:27:34.940Z,100408.69
2022-12-11T07:32:38.592Z,100408.69
2022-12-11T07:37:43.449Z,100416.03
2022-12-11T07:42:46.841Z,100427.50
2022-12-11T07:47:50.204Z,100433.00
2022-12-11T07:52:54.977Z,100426.22
2022-12-11T07:57:58.312Z,100429.13
2022-12-11T08:03:02.034Z,100414.97
2022-12-11T08:08:07.027Z,100408.53
2022-12-11T08:13:10.884Z,100411.91
2022-12-11T08:18:14.415Z,100413.84
2022-12-11T08:23:19.148Z,100421.72
2022-12-11T08:28:22.520Z,100422.22
2022-12-11T08:33:25.960Z,100418.72
2022-12-11T08:38:31.261Z,100422.09
2022-12-11T08:43:35.816Z,100423.97
2022-12-11T08:48:40.610Z,100413.78
2022-12-11T08:53:45.557Z,100421.41
2022-12-11T08:58:49.017Z,100424.19
2022-12-11T09:03:53.695Z,100417.88
2022-12-11T09:09:00.456Z,100417.16
2022-12-11T09:14:07.571Z,100417.00
2022-12-11T09:19:13.812Z,100407.91
2022-12-11T09:24:18.537Z,100417.72
2022-12-11T09:29:21.838Z,100407.44
2022-12-11T09:34:29.067Z,100402.97
2022-12-11T09:39:34.348Z,100398.72
2022-12-11T09:44:43.281Z,100400.13
2022-12-11T09:50:04.933Z,100401.16
2022-12-11T09:55:16.615Z,100402.91
2022-12-11T10:00:23.716Z,100394.47
2022-12-11T10:05:32.064Z,100397.97
2022-12-11T10:10:43.330Z,100389.78
2022-12-11T10:15:51.810Z,100374.88
2022-12-11T10:20:56.659Z,100371.78
2022-12-11T10:26:05.595Z,100366.06
2022-12-11T10:31:16.169Z,100360.47
2022-12-11T10:36:23.317Z,100359.56
2022-12-11T10:41:39.051Z,100356.31
2022-12-11T10:46:42.438Z,100344.59
2022-12-11T10:51:45.815Z,100349.75
2022-12-11T10:56:51.482Z,100348.53
2022-12-11T11:01:54.902Z,100352.28
2022-12-11T11:07:11.458Z,100340.59
2022-12-11T11:12:24.520Z,100343.97
2022-12-11T11:17:32.108Z,100348.97
2022-12-11T11:22:40.273Z,100351.63
2022-12-11T11:27:46.750Z,100345.31
2022-12-11T11:32:52.401Z,100349.34
2022-12-11T11:38:01.739Z,100325.28
2022-12-11T11:43:15.213Z,100331.06
2022-12-11T11:48:28.971Z,100334.41
2022-12-11T11:53:37.261Z,100332.41
2022-12-11T11:58:46.789Z,100330.31
2022-12-11T12:03:52.935Z,100336.78
2022-12-11T12:09:04.658Z,100337.94
2022-12-11T12:14:43.535Z,100328.63
2022-12-11T12:19:53.092Z,100321.81
2022-12-11T12:25:04.253Z,100316.50
2022-12-11T12:30:17.383Z,100309.97
2022-12-11T12:35:32.817Z,100302.66
2022-12-11T12:40:41.653Z,100299.72
2022-12-11T12:45:52.948Z,100305.63
2022-12-11T12:50:56.794Z,100299.50
2022-12-11T12:56:00.700Z,100290.16
2022-12-11T13:01:16.747Z,100293.72
2022-12-11T13:06:30.521Z,100294.59
2022-12-11T13:11:35.136Z,100297.22
2022-12-11T13:16:41.214Z,100294.25
2022-12-11T13:21:44.648Z,100301.50
2022-12-11T13:26:49.296Z,100295.69
2022-12-11T13:32:00.855Z,100302.88
2022-12-11T13:37:05.355Z,100310.84
2022-12-11T13:42:21.550Z,100309.25
2022-12-11T13:47:26.977Z,100309.81
2022-12-11T13:52:31.635Z,100304.19
2022-12-11T13:57:35.044Z,100315.41
2022-12-11T14:02:42.460Z,100314.13
2022-12-11T14:07:49.859Z,100309.38
2022-12-11T14:12:56.695Z,100319.69
2022-12-11T14:18:01.803Z,100319.88
2022-12-11T14:23:06.281Z,100322.31
2022-12-11T14:28:16.809Z,100335.81
2022-12-11T14:33:24.902Z,100330.25
2022-12-11T14:38:30.531Z,100332.41
2022-12-11T14:43:37.045Z,100330.94
2022-12-11T14:48:46.074Z,100343.91
2022-12-11T14:53:51.784Z,100336.84
2022-12-11T14:58:58.496Z,100345.47
2022-12-11T15:04:08.588Z,100349.19
2022-12-11T15:09:19.331Z,100349.78
2022-12-11T15:14:23.952Z,100359.59
2022-12-11T15:19:33.016Z,100356.81
2022-12-11T15:24:39.256Z,100360.84
2022-12-11T15:29:42.700Z,100366.59
2022-12-11T15:34:49.306Z,100355.00
2022-12-11T15:39:54.060Z,100362.38
2022-12-11T15:44:57.733Z,100357.84
2022-12-11T15:50:08.663Z,100357.66
2022-12-11T15:55:12.621Z,100357.22
2022-12-11T16:00:18.578Z,100357.75
2022-12-11T16:05:23.373Z,100363.38
2022-12-11T16:10:27.448Z,100357.97
2022-12-11T16:15:31.084Z,100356.81
2022-12-11T16:20:36.663Z,100355.47
2022-12-11T16:25:41.238Z,100351.50
2022-12-11T16:30:45.374Z,100344.97
2022-12-11T16:35:50.133Z,100343.00
2022-12-11T16:41:00.858Z,100356.53
2022-12-11T16:46:04.483Z,100349.09
2022-12-11T16:51:09.280Z,100358.06
2022-12-11T16:56:12.854Z,100365.41
2022-12-11T17:01:17.129Z,100366.25
2022-12-11T17:06:22.006Z,100378.97
2022-12-11T17:11:26.163Z,100368.53
2022-12-11T17:16:30.406Z,100371.16
2022-12-11T17:21:35.285Z,100367.78
2022-12-11T17:26:38.618Z,100375.72
2022-12-11T17:31:42.052Z,100368.78
2022-12-11T17:36:47.133Z,100366.28
2022-12-11T17:41:50.495Z,100371.56
2022-12-11T17:46:53.883Z,100363.91
2022-12-11T17:51:58.568Z,100361.38
2022-12-11T17:57:02.202Z,100368.94
2022-12-11T18:02:05.645Z,100363.84
2022-12-11T18:07:10.348Z,100376.16
2022-12-11T18:12:14.010Z,100378.94
2022-12-11T18:17:17.352Z,100374.66
2022-12-11T18:22:22.810Z,100376.34
2022-12-11T18:27:26.360Z,100370.16
2022-12-11T18:32:31.239Z,100382.41
2022-12-11T18:37:36.041Z,100386.66
2022-12-11T18:42:39.488Z,100392.59
2022-12-11T18:47:42.826Z,100380.34
2022-12-11T18:52:47.529Z,100374.81
2022-12-11T18:57:50.948Z,100380.28
2022-12-11T19:02:54.457Z,100376.47
2022-12-11T19:07:59.191Z,100377.16
2022-12-11T19:13:02.549Z,100373.63
2022-12-11T19:18:06.003Z,100378.63
2022-12-11T19:23:11.769Z,100391.13
2022-12-11T19:28:15.498Z,100393.84
2022-12-11T19:33:18.888Z,100397.69
2022-12-11T19:38:23.877Z,100396.16
2022-12-11T19:43:27.217Z,100400.97
2022-12-11T19:48:31.625Z,100400.41
2022-12-11T19:53:36.765Z,100397.28
2022-12-11T19:58:40.176Z,100389.97
2022-12-11T20:03:43.653Z,100393.69
2022-12-11T20:08:49.157Z,100398.31
2022-12-11T20:13:55.325Z,100391.47
2022-12-11T20:18:58.730Z,100391.81
2022-12-11T20:24:03.540Z,100399.31
2022-12-11T20:29:08.169Z,100398.59
2022-12-11T20:34:11.562Z,100398.81
2022-12-11T20:39:16.345Z,100412.94
2022-12-11T20:44:20.198Z,100410.53
2022-12-11T20:49:23.578Z,100412.41
2022-12-11T20:54:28.325Z,100410.88
2022-12-11T20:59:31.713Z,100410.13
2022-12-11T21:04:39.487Z,100406.69
2022-12-11T21:09:44.573Z,100414.44
2022-12-11T21:14:47.973Z,100408.53
2022-12-11T21:19:51.529Z,100418.22
2022-12-11T21:24:56.288Z,100404.38
2022-12-11T21:29:59.691Z,100410.59
2022-12-11T21:35:03.199Z,100409.09
2022-12-11T21:40:08.908Z,100411.94
2022-12-11T21:45:58.801Z,100409.47
2022-12-11T21:50:35.904Z,100405.28
2022-12-11T21:55:42.368Z,100398.50
2022-12-11T22:00:46.526Z,100399.75
2022-12-11T22:05:50.389Z,100410.22
2022-12-11T22:10:56.563Z,100413.91
2022-12-11T22:15:59.934Z,100418.19
2022-12-11T22:21:03.337Z,100424.41
2022-12-11T22:26:08.493Z,100428.78
2022-12-11T22:31:12.343Z,100429.84
2022-12-11T22:36:15.782Z,100427.53
2022-12-11T22:41:25.197Z,100427.75
2022-12-11T22:46:30.678Z,100433.75
2022-12-11T22:51:34.216Z,100423.66
2022-12-11T22:56:39.306Z,100425.44
2022-12-11T23:01:42.734Z,100423.75
2022-12-11T23:06:46.157Z,100416.03
2022-12-11T23:11:51.117Z,100418.66
2022-12-11T23:16:54.572Z,100415.22
2022-12-11T23:21:58.012Z,100422.19
2022-12-11T23:27:02.829Z,100420.66
2022-12-11T23:32:06.406Z,100427.56
2022-12-11T23:37:10.625Z,100426.00
2022-12-11T23:42:15.409Z,100423.38
2022-12-11T23:47:18.774Z,100416.50
2022-12-11T23:52:22.561Z,100419.97
2022-12-11T23:57:29.292Z,100419.31
